Lewistown Municipal Airport
KLWT : now visible

Airfield :











YOU CAN JOIN US ON...

 
LOGIN :

Register | Disclaimer

   EN    FR    IT 

 









Legend :    VFR   Marginal VFR   IFR   Intensive IFR   Very Intensive IFR
Visi :
Ceiling :
>= 8 km
>= 3000ft
5 to 8 km
1000 to 3000 ft
1500m to 5 km
500 to 1000 ft
800 to 1500m
200 to 500 ft
< 800m
< 200 ft
Symbols :   Thunderstorms  Fog  Heavy snow  Heavy precipitations  Wind > 20 kt






- Airport Elevation : 4170 ft
- IATA code : LWT


KLWT - Lewistown Municipal

CURRENT METAR :
  • 230054Z AUTO 30013G18KT 10SM OVC007 M02/M04 A2992 RMK AO2 SLP164 T10221039

EXPIRED METARs :
  • 222354Z AUTO 30014G20KT 10SM BKN009 OVC019 M01/M03 A2991 RMK AO2 SLP163 T10111033 10089 21011 51025
  • 222341Z AUTO 30018G24KT 10SM BKN009 BKN014 OVC019 M01/M03 A2991 RMK AO2 T10111033
  • 222301Z AUTO 30016G24KT 10SM OVC014 M01/M03 A2990 RMK AO2 T10061033
  • 222254Z AUTO 31014G21KT 10SM OVC016 M01/M03 A2990 RMK AO2 SLP154 T10061033
  • 222232Z AUTO 31009G22KT 10SM BKN017 BKN025 OVC042 01/M03 A2989 RMK AO2 T00061028

TAF KLWT
Valid from the 23 at 00:00 until the 24 at 00:00 UTC


222320Z 2300/2324 33014G24KT P6SM VCSH BKN012
TEMPO 2303/2304 6SM -FZDZSN BR OVC007
FM230400 33011KT 6SM -FZDZSN BR OVC007
FM230600 VRB05KT 3SM -SN BR OVC008
FM231200 VRB04KT P6SM OVC015
PROB30 2312/2317 4SM -SN BR OVC009
KZLC FIR / North America



MET'MAP, your aeronautical weather chart ! - Copyright ORBIFLY December 2007 - Disclaimer

ORBIFLY MET'MAP TEAM :

Programming & Development : Alexandra Zaïnal
Concept & original design : Baudouin d'Aumeries
Assistance for programming : Marc-Olivier Méhu
Technical & hardware support : Manuel Goepfert

Contact : metmap@orbifly.com




SOURCES & CREDITS :

   NOAA       Earth
Advisory